createdAt,value
2023-04-15T00:00:03.030Z,75.83
2023-04-15T00:02:29.643Z,77.19
2023-04-15T00:04:56.344Z,77.11
2023-04-15T00:07:22.803Z,79.27
2023-04-15T00:09:49.258Z,78.03
2023-04-15T00:12:15.707Z,78.10
2023-04-15T00:14:42.259Z,79.60
2023-04-15T00:17:08.730Z,79.54
2023-04-15T00:19:35.241Z,78.44
2023-04-15T00:22:01.750Z,79.69
2023-04-15T00:24:28.238Z,81.65
2023-04-15T00:26:54.710Z,79.70
2023-04-15T00:29:21.153Z,81.69
2023-04-15T00:31:47.636Z,82.51
2023-04-15T00:34:14.071Z,83.75
2023-04-15T00:36:40.600Z,82.16
2023-04-15T00:39:07.084Z,81.91
2023-04-15T00:41:33.600Z,80.50
2023-04-15T00:44:01.406Z,79.62
2023-04-15T00:46:31.357Z,81.56
2023-04-15T00:48:57.921Z,81.26
2023-04-15T00:51:24.455Z,80.74
2023-04-15T00:53:50.998Z,81.04
2023-04-15T00:56:20.072Z,81.94
2023-04-15T00:58:46.648Z,82.12
2023-04-15T01:01:13.151Z,80.55
2023-04-15T01:03:39.858Z,80.20
2023-04-15T01:06:07.733Z,79.40
2023-04-15T01:08:34.196Z,80.73
2023-04-15T01:11:03.365Z,79.53
2023-04-15T01:13:31.095Z,81.94
2023-04-15T01:15:57.664Z,79.46
2023-04-15T01:18:24.391Z,80.46
2023-04-15T01:20:50.864Z,78.91
2023-04-15T01:23:17.473Z,79.59
2023-04-15T01:25:45.329Z,78.23
2023-04-15T01:28:11.897Z,80.49
2023-04-15T01:30:38.388Z,80.09
2023-04-15T01:33:04.957Z,79.41
2023-04-15T01:35:31.411Z,79.79
2023-04-15T01:38:08.004Z,78.84
2023-04-15T01:40:35.027Z,78.88
2023-04-15T01:43:02.415Z,79.66
2023-04-15T01:45:29.030Z,80.64
2023-04-15T01:47:55.726Z,79.54
2023-04-15T01:50:22.248Z,78.88
2023-04-15T01:52:48.737Z,78.70
2023-04-15T01:55:15.171Z,78.80
2023-04-15T01:57:41.650Z,78.88
2023-04-15T02:00:08.565Z,79.66
2023-04-15T02:02:35.113Z,78.57
2023-04-15T02:05:01.646Z,77.89
2023-04-15T02:07:28.119Z,77.93
2023-04-15T02:09:54.570Z,77.38
2023-04-15T02:12:21.038Z,76.84
2023-04-15T02:14:47.519Z,76.64
2023-04-15T02:17:13.969Z,76.29
2023-04-15T02:19:40.412Z,76.50
2023-04-15T02:22:06.909Z,75.17
2023-04-15T02:24:34.682Z,75.91
2023-04-15T02:27:01.153Z,75.72
2023-04-15T02:29:27.695Z,75.43
2023-04-15T02:31:54.223Z,75.17
2023-04-15T02:34:20.712Z,75.67
2023-04-15T02:36:47.181Z,75.87
2023-04-15T02:39:13.634Z,74.93
2023-04-15T02:41:40.092Z,74.20
2023-04-15T02:44:06.536Z,74.80
2023-04-15T02:46:33.005Z,74.27
2023-04-15T02:48:59.728Z,74.43
2023-04-15T02:51:30.844Z,75.14
2023-04-15T02:53:57.341Z,75.39
2023-04-15T02:56:23.868Z,75.95
2023-04-15T02:58:50.420Z,76.64
2023-04-15T03:01:16.953Z,76.71
2023-04-15T03:03:43.530Z,77.63
2023-04-15T03:06:10.117Z,79.91
2023-04-15T03:08:36.616Z,81.31
2023-04-15T03:11:03.324Z,80.47
2023-04-15T03:13:29.810Z,79.77
2023-04-15T03:15:56.332Z,79.46
2023-04-15T03:18:22.911Z,78.44
2023-04-15T03:20:49.412Z,78.40
2023-04-15T03:23:15.931Z,77.36
2023-04-15T03:25:42.432Z,77.82
2023-04-15T03:28:08.913Z,76.81
2023-04-15T03:30:35.388Z,77.66
2023-04-15T03:33:01.916Z,78.04
2023-04-15T03:35:28.401Z,77.68
2023-04-15T03:37:54.910Z,77.21
2023-04-15T03:40:21.713Z,77.02
2023-04-15T03:42:48.256Z,76.23
2023-04-15T03:45:14.723Z,76.57
2023-04-15T03:47:41.214Z,77.19
2023-04-15T03:50:08.088Z,77.01
2023-04-15T03:52:34.556Z,77.19
2023-04-15T03:55:01.017Z,77.65
2023-04-15T03:57:27.560Z,77.88
2023-04-15T03:59:54.002Z,76.71
2023-04-15T04:02:20.582Z,77.39
2023-04-15T04:04:47.239Z,76.94
2023-04-15T04:07:17.513Z,78.88
2023-04-15T04:09:45.660Z,78.01
2023-04-15T04:12:13.164Z,78.00
2023-04-15T04:14:39.624Z,78.19
2023-04-15T04:17:06.288Z,78.50
2023-04-15T04:19:32.855Z,78.24
2023-04-15T04:21:59.353Z,78.21
2023-04-15T04:24:25.866Z,78.50
2023-04-15T04:26:52.375Z,78.64
2023-04-15T04:29:18.829Z,79.23
2023-04-15T04:31:45.409Z,80.99
2023-04-15T04:34:11.905Z,81.73
2023-04-15T04:36:38.389Z,80.79
2023-04-15T04:39:04.844Z,82.23
2023-04-15T04:41:31.344Z,82.25
2023-04-15T04:43:57.884Z,81.59
2023-04-15T04:46:24.399Z,81.44
2023-04-15T04:48:50.860Z,81.69
2023-04-15T04:51:18.004Z,81.95
2023-04-15T04:53:44.490Z,82.32
2023-04-15T04:56:10.958Z,82.04
2023-04-15T04:58:37.439Z,81.33
2023-04-15T05:01:04.332Z,81.90
2023-04-15T05:03:30.990Z,81.41
2023-04-15T05:05:57.502Z,81.17
2023-04-15T05:08:23.990Z,81.23
2023-04-15T05:10:50.457Z,80.78
2023-04-15T05:13:16.928Z,81.10
2023-04-15T05:15:43.469Z,81.20
2023-04-15T05:18:09.992Z,80.21
2023-04-15T05:20:36.501Z,80.72
2023-04-15T05:23:02.989Z,80.79
2023-04-15T05:25:29.527Z,80.30
2023-04-15T05:27:56.048Z,80.97
2023-04-15T05:30:22.546Z,81.89
2023-04-15T05:32:49.080Z,81.88
2023-04-15T05:35:15.571Z,81.15
2023-04-15T05:37:42.150Z,80.34
2023-04-15T05:40:08.831Z,80.48
2023-04-15T05:42:35.325Z,79.85
2023-04-15T05:45:01.803Z,78.69
2023-04-15T05:47:28.297Z,77.91
2023-04-15T05:49:54.763Z,77.72
2023-04-15T05:52:21.222Z,77.59
2023-04-15T05:54:47.723Z,77.98
2023-04-15T05:57:14.230Z,77.31
2023-04-15T05:59:40.689Z,77.55
2023-04-15T06:02:07.493Z,77.38
2023-04-15T06:04:34.066Z,78.60
2023-04-15T06:07:00.653Z,79.51
2023-04-15T06:09:27.151Z,79.27
2023-04-15T06:11:53.665Z,81.88
2023-04-15T06:14:20.205Z,82.55
2023-04-15T06:16:46.669Z,82.50
2023-04-15T06:19:13.141Z,82.64
2023-04-15T06:21:40.012Z,84.05
2023-04-15T06:24:06.632Z,85.87
2023-04-15T06:26:33.083Z,86.66
2023-04-15T06:28:59.785Z,88.66
2023-04-15T06:31:26.761Z,88.35
2023-04-15T06:33:53.299Z,88.32
2023-04-15T06:36:19.792Z,88.40
2023-04-15T06:38:46.253Z,90.40
2023-04-15T06:41:12.868Z,90.54
2023-04-15T06:43:39.633Z,92.85
2023-04-15T06:46:06.154Z,93.20
2023-04-15T06:48:32.711Z,94.17
2023-04-15T06:50:59.215Z,95.40
2023-04-15T06:53:26.180Z,94.83
2023-04-15T06:55:52.677Z,92.50
2023-04-15T06:58:19.156Z,92.42
2023-04-15T07:00:45.850Z,91.95
2023-04-15T07:03:12.839Z,91.35
2023-04-15T07:05:39.488Z,92.03
2023-04-15T07:08:05.978Z,92.04
2023-04-15T07:10:33.607Z,93.10
2023-04-15T07:13:00.153Z,93.19
2023-04-15T07:15:26.639Z,93.45
2023-04-15T07:17:53.167Z,91.98
2023-04-15T07:20:19.853Z,92.71
2023-04-15T07:22:46.331Z,92.40
2023-04-15T07:25:12.812Z,91.49
2023-04-15T07:27:39.248Z,91.83
2023-04-15T07:30:07.075Z,91.77
2023-04-15T07:32:33.657Z,92.33
2023-04-15T07:35:01.036Z,93.56
2023-04-15T07:37:27.543Z,92.50
2023-04-15T07:39:54.388Z,92.39
2023-04-15T07:42:21.755Z,92.72
2023-04-15T07:44:51.870Z,91.16
2023-04-15T07:47:18.412Z,91.44
2023-04-15T07:49:45.204Z,91.35
2023-04-15T07:52:11.706Z,92.36
2023-04-15T07:54:38.211Z,91.61
2023-04-15T07:57:04.764Z,90.97
2023-04-15T07:59:31.364Z,91.62
2023-04-15T08:01:57.976Z,90.16
2023-04-15T08:04:24.659Z,90.24
2023-04-15T08:06:51.243Z,91.13
2023-04-15T08:09:17.889Z,90.52
2023-04-15T08:11:45.381Z,91.52
2023-04-15T08:14:11.837Z,91.52
2023-04-15T08:16:38.361Z,90.58
2023-04-15T08:19:04.927Z,89.72
2023-04-15T08:21:31.442Z,89.25
2023-04-15T08:23:57.945Z,88.01
2023-04-15T08:26:24.492Z,87.40
2023-04-15T08:28:51.032Z,86.15
2023-04-15T08:31:18.776Z,85.89
2023-04-15T08:33:46.390Z,84.19
2023-04-15T08:36:12.944Z,84.23
2023-04-15T08:38:39.565Z,83.83
2023-04-15T08:41:21.645Z,82.86
2023-04-15T08:44:03.400Z,82.22
2023-04-15T08:46:31.573Z,81.48
2023-04-15T08:48:58.987Z,81.21
2023-04-15T08:51:26.918Z,80.16
2023-04-15T08:53:54.305Z,79.72
2023-04-15T08:56:25.507Z,78.98
2023-04-15T08:58:52.132Z,77.87
2023-04-15T09:01:19.041Z,76.49
2023-04-15T09:03:48.012Z,74.80
2023-04-15T09:06:17.149Z,72.97
2023-04-15T09:08:43.989Z,74.57
2023-04-15T09:11:10.517Z,74.62
2023-04-15T09:13:37.046Z,76.04
2023-04-15T09:16:05.817Z,75.74
2023-04-15T09:18:34.699Z,74.78
2023-04-15T09:21:05.958Z,76.03
2023-04-15T09:23:32.805Z,76.69
2023-04-15T09:25:59.334Z,77.39
2023-04-15T09:28:26.501Z,77.73
2023-04-15T09:30:56.725Z,78.13
2023-04-15T09:33:23.596Z,77.46
2023-04-15T09:36:05.151Z,78.41
2023-04-15T09:38:32.532Z,79.54
2023-04-15T09:40:59.427Z,79.90
2023-04-15T09:43:52.453Z,79.00
2023-04-15T09:46:19.154Z,79.07
2023-04-15T09:48:46.044Z,78.51
2023-04-15T09:51:12.630Z,78.44
2023-04-15T09:53:39.109Z,78.01
2023-04-15T09:56:05.816Z,78.87
2023-04-15T09:58:34.196Z,77.21
2023-04-15T10:01:03.495Z,76.90
2023-04-15T10:03:35.788Z,76.99
2023-04-15T10:06:02.738Z,77.06
2023-04-15T10:08:31.498Z,76.12
2023-04-15T10:10:59.011Z,76.71
2023-04-15T10:13:29.556Z,76.38
2023-04-15T10:15:59.328Z,76.25
2023-04-15T10:18:28.149Z,75.28
2023-04-15T10:20:55.532Z,75.19
2023-04-15T10:23:23.579Z,75.26
2023-04-15T10:25:52.674Z,72.46
2023-04-15T10:28:20.032Z,74.20
2023-04-15T10:30:46.874Z,74.68
2023-04-15T10:33:15.354Z,74.43
2023-04-15T10:35:42.935Z,74.96
2023-04-15T10:38:31.787Z,73.93
2023-04-15T10:41:17.768Z,75.29
2023-04-15T10:43:51.791Z,74.52
2023-04-15T10:46:39.232Z,73.69
2023-04-15T10:49:14.731Z,74.50
2023-04-15T10:51:52.761Z,73.87
2023-04-15T10:54:25.016Z,76.04
2023-04-15T10:57:07.184Z,74.23
2023-04-15T10:59:37.680Z,74.52
2023-04-15T11:02:07.127Z,73.71
2023-04-15T11:04:56.538Z,73.38
2023-04-15T11:07:50.463Z,71.83
2023-04-15T11:10:25.903Z,72.42
2023-04-15T11:12:56.675Z,72.71
2023-04-15T11:15:41.009Z,72.95
2023-04-15T11:18:12.357Z,71.94
2023-04-15T11:20:41.821Z,72.88
2023-04-15T11:23:14.745Z,72.51
2023-04-15T11:25:42.756Z,71.88
2023-04-15T11:28:09.902Z,70.78
2023-04-15T11:30:37.802Z,70.41
2023-04-15T11:33:07.217Z,69.50
2023-04-15T11:35:34.697Z,69.70
2023-04-15T11:38:05.885Z,69.17
2023-04-15T11:40:38.495Z,70.24
2023-04-15T11:43:17.174Z,68.53
2023-04-15T11:45:52.924Z,68.87
2023-04-15T11:48:22.686Z,69.70
2023-04-15T11:51:03.476Z,69.03
2023-04-15T11:53:47.510Z,69.15
2023-04-15T11:56:22.116Z,68.16
2023-04-15T11:58:55.834Z,65.75
2023-04-15T12:01:34.617Z,65.92
2023-04-15T12:04:01.256Z,65.33
2023-04-15T12:06:32.845Z,65.52
2023-04-15T12:09:12.105Z,66.40
2023-04-15T12:11:44.827Z,66.10
2023-04-15T12:14:15.823Z,65.45
2023-04-15T12:16:49.285Z,66.10
2023-04-15T12:19:22.334Z,65.67
2023-04-15T12:21:49.294Z,64.80
2023-04-15T12:24:19.653Z,65.24
2023-04-15T12:26:49.199Z,65.25
2023-04-15T12:29:17.073Z,64.65
2023-04-15T12:31:52.391Z,64.80
2023-04-15T12:34:39.084Z,64.21
2023-04-15T12:37:10.946Z,63.64
2023-04-15T12:39:40.376Z,63.94
2023-04-15T12:42:07.900Z,65.44
2023-04-15T12:44:35.235Z,63.54
2023-04-15T12:47:02.051Z,63.77
2023-04-15T12:49:29.394Z,63.90
2023-04-15T12:51:57.431Z,62.10
2023-04-15T12:54:23.949Z,62.91
2023-04-15T12:56:51.246Z,62.18
2023-04-15T12:59:18.070Z,64.11
2023-04-15T13:01:46.129Z,65.01
2023-04-15T13:04:12.810Z,63.38
2023-04-15T13:06:39.588Z,63.74
2023-04-15T13:09:06.279Z,63.82
2023-04-15T13:11:33.618Z,64.67
2023-04-15T13:14:02.290Z,64.44
2023-04-15T13:16:29.481Z,63.38
2023-04-15T13:18:56.046Z,63.30
2023-04-15T13:21:22.498Z,61.97
2023-04-15T13:23:50.254Z,62.96
2023-04-15T13:26:17.956Z,63.19
2023-04-15T13:28:45.571Z,60.97
2023-04-15T13:31:14.083Z,61.24
2023-04-15T13:33:41.150Z,61.98
2023-04-15T13:36:08.173Z,62.62
2023-04-15T13:38:34.797Z,63.02
2023-04-15T13:41:03.653Z,61.73
2023-04-15T13:43:30.303Z,63.12
2023-04-15T13:45:57.025Z,62.52
2023-04-15T13:48:23.734Z,62.47
2023-04-15T13:50:50.306Z,62.68
2023-04-15T13:53:16.900Z,61.71
2023-04-15T13:55:43.729Z,61.93
2023-04-15T13:58:13.155Z,61.30
2023-04-15T14:00:39.940Z,60.60
2023-04-15T14:03:06.758Z,61.16
2023-04-15T14:05:33.359Z,61.14
2023-04-15T14:08:00.584Z,61.18
2023-04-15T14:10:27.119Z,62.32
2023-04-15T14:12:53.686Z,63.70
2023-04-15T14:15:21.195Z,63.79
2023-04-15T14:17:47.761Z,62.65
2023-04-15T14:20:16.807Z,63.84
2023-04-15T14:22:43.856Z,63.53
2023-04-15T14:25:15.054Z,63.70
2023-04-15T14:27:46.623Z,63.05
2023-04-15T14:30:13.393Z,62.12
2023-04-15T14:32:40.208Z,63.50
2023-04-15T14:35:07.300Z,65.00
2023-04-15T14:37:33.861Z,61.84
2023-04-15T14:40:00.372Z,64.13
2023-04-15T14:42:26.996Z,64.91
2023-04-15T14:44:53.488Z,64.05
2023-04-15T14:47:20.027Z,64.06
2023-04-15T14:49:46.689Z,62.26
2023-04-15T14:52:13.145Z,63.96
2023-04-15T14:54:39.597Z,64.38
2023-04-15T14:57:06.106Z,65.24
2023-04-15T14:59:32.904Z,64.20
2023-04-15T15:02:00.209Z,64.79
2023-04-15T15:04:27.488Z,64.90
2023-04-15T15:06:54.850Z,64.18
2023-04-15T15:09:21.434Z,64.41
2023-04-15T15:11:48.168Z,65.07
2023-04-15T15:14:14.771Z,64.75
2023-04-15T15:16:41.343Z,64.92
2023-04-15T15:19:07.872Z,66.56
2023-04-15T15:21:34.949Z,65.43
2023-04-15T15:24:01.550Z,67.20
2023-04-15T15:26:28.065Z,66.87
2023-04-15T15:28:54.750Z,67.45
2023-04-15T15:31:21.334Z,67.05
2023-04-15T15:33:47.969Z,67.42
2023-04-15T15:36:14.478Z,67.96
2023-04-15T15:38:40.930Z,67.65
2023-04-15T15:41:07.402Z,65.52
2023-04-15T15:43:33.860Z,66.45
2023-04-15T15:46:01.041Z,67.32
2023-04-15T15:48:27.633Z,67.84
2023-04-15T15:50:54.212Z,66.54
2023-04-15T15:53:20.697Z,67.33
2023-04-15T15:55:47.804Z,67.84
2023-04-15T15:58:14.353Z,68.42
2023-04-15T16:00:41.631Z,68.02
2023-04-15T16:03:08.529Z,68.33
2023-04-15T16:05:36.068Z,68.83
2023-04-15T16:08:02.607Z,68.86
2023-04-15T16:10:29.153Z,70.12
2023-04-15T16:12:56.173Z,69.65
2023-04-15T16:15:25.093Z,69.51
2023-04-15T16:17:51.867Z,70.22
2023-04-15T16:20:18.478Z,69.42
2023-04-15T16:22:45.245Z,68.33
2023-04-15T16:25:11.776Z,68.82
2023-04-15T16:30:09.156Z,69.16
2023-04-15T16:32:35.866Z,69.37
2023-04-15T16:35:03.436Z,71.05
2023-04-15T16:37:29.923Z,73.97
2023-04-15T16:39:56.471Z,73.28
2023-04-15T16:42:22.985Z,72.24
2023-04-15T16:44:49.450Z,72.44
2023-04-15T16:47:15.980Z,72.75
2023-04-15T16:49:42.504Z,72.48
2023-04-15T16:52:08.953Z,72.44
2023-04-15T16:54:35.427Z,72.76
2023-04-15T16:57:01.943Z,71.91
2023-04-15T16:59:28.535Z,71.55
2023-04-15T17:01:55.193Z,72.07
2023-04-15T17:04:21.873Z,71.55
2023-04-15T17:06:48.418Z,71.06
2023-04-15T17:09:14.917Z,68.46
2023-04-15T17:11:41.492Z,69.97
2023-04-15T17:14:08.269Z,69.88
2023-04-15T17:16:34.795Z,69.76
2023-04-15T17:19:01.333Z,68.99
2023-04-15T17:21:27.929Z,69.30
2023-04-15T17:23:54.634Z,69.36
2023-04-15T17:26:21.113Z,69.80
2023-04-15T17:28:47.655Z,69.04
2023-04-15T17:31:14.277Z,69.41
2023-04-15T17:34:01.510Z,70.19
2023-04-15T17:36:30.190Z,71.01
2023-04-15T17:38:56.758Z,70.89
2023-04-15T17:41:23.840Z,70.59
2023-04-15T17:43:50.477Z,71.61
2023-04-15T17:46:17.078Z,72.59
2023-04-15T17:48:43.971Z,72.83
2023-04-15T17:51:10.484Z,73.23
2023-04-15T17:53:36.993Z,74.02
2023-04-15T17:56:03.737Z,74.18
2023-04-15T17:58:31.295Z,74.16
2023-04-15T18:00:57.826Z,73.75
2023-04-15T18:03:24.565Z,73.45
2023-04-15T18:05:51.245Z,73.16
2023-04-15T18:08:17.900Z,73.12
2023-04-15T18:10:44.429Z,73.05
2023-04-15T18:13:10.921Z,73.32
2023-04-15T18:15:37.434Z,74.54
2023-04-15T18:18:04.002Z,75.13
2023-04-15T18:20:30.517Z,76.00
2023-04-15T18:22:56.982Z,75.94
2023-04-15T18:25:23.459Z,76.60
2023-04-15T18:27:49.976Z,76.84
2023-04-15T18:30:16.447Z,76.56
2023-04-15T18:32:43.442Z,76.78
2023-04-15T18:35:10.216Z,76.64
2023-04-15T18:37:36.784Z,76.18
2023-04-15T18:40:03.473Z,76.09
2023-04-15T18:42:29.960Z,76.40
2023-04-15T18:44:56.491Z,76.41
2023-04-15T18:47:25.206Z,76.55
2023-04-15T18:49:53.174Z,76.56
2023-04-15T18:52:19.787Z,76.78
2023-04-15T18:54:46.418Z,77.05
2023-04-15T18:57:12.888Z,76.81
2023-04-15T18:59:39.389Z,76.58
2023-04-15T19:02:06.326Z,77.05
2023-04-15T19:04:33.196Z,76.85
2023-04-15T19:06:59.880Z,76.53
2023-04-15T19:09:26.492Z,75.28
2023-04-15T19:11:53.100Z,75.09
2023-04-15T19:14:19.689Z,74.35
2023-04-15T19:16:46.250Z,74.43
2023-04-15T19:19:12.836Z,73.90
2023-04-15T19:21:39.337Z,73.60
2023-04-15T19:24:06.108Z,73.36
2023-04-15T19:26:32.938Z,73.41
2023-04-15T19:28:59.416Z,73.74
2023-04-15T19:31:26.344Z,73.53
2023-04-15T19:33:52.900Z,74.20
2023-04-15T19:36:19.443Z,74.96
2023-04-15T19:38:46.164Z,75.01
2023-04-15T19:41:12.634Z,76.24
2023-04-15T19:43:39.091Z,76.50
2023-04-15T19:46:07.482Z,76.67
2023-04-15T19:48:34.007Z,76.37
2023-04-15T19:51:00.706Z,76.85
2023-04-15T19:53:27.161Z,76.78
2023-04-15T19:55:53.964Z,77.80
2023-04-15T19:58:20.500Z,77.51
2023-04-15T20:00:46.976Z,76.94
2023-04-15T20:03:13.913Z,76.06
2023-04-15T20:05:40.571Z,75.85
2023-04-15T20:08:07.134Z,74.82
2023-04-15T20:10:33.883Z,75.39
2023-04-15T20:13:00.467Z,75.80
2023-04-15T20:15:27.025Z,76.22
2023-04-15T20:17:55.704Z,76.74
2023-04-15T20:20:22.599Z,76.96
2023-04-15T20:22:49.171Z,76.11
2023-04-15T20:25:15.714Z,75.42
2023-04-15T20:27:42.322Z,75.56
2023-04-15T20:30:09.562Z,75.24
2023-04-15T20:32:36.442Z,75.80
2023-04-15T20:35:04.307Z,75.53
2023-04-15T20:37:31.955Z,75.48
2023-04-15T20:40:01.304Z,75.84
2023-04-15T20:42:28.268Z,76.30
2023-04-15T20:44:54.789Z,77.44
2023-04-15T20:47:21.316Z,77.20
2023-04-15T20:49:47.896Z,76.93
2023-04-15T20:52:14.444Z,77.12
2023-04-15T20:54:40.906Z,77.17
2023-04-15T20:57:07.408Z,76.02
2023-04-15T20:59:33.880Z,76.68
2023-04-15T21:02:00.685Z,76.94
2023-04-15T21:04:27.232Z,76.89
2023-04-15T21:06:53.736Z,77.01
2023-04-15T21:09:20.202Z,76.78
2023-04-15T21:12:00.531Z,76.72
2023-04-15T21:14:28.840Z,77.13
2023-04-15T21:16:57.112Z,76.78
2023-04-15T21:19:23.622Z,75.75
2023-04-15T21:21:50.124Z,77.13
2023-04-15T21:24:16.615Z,77.46
2023-04-15T21:26:43.087Z,77.42
2023-04-15T21:29:11.736Z,77.35
2023-04-15T21:31:38.657Z,77.07
2023-04-15T21:34:05.253Z,78.42
2023-04-15T21:36:32.437Z,78.98
2023-04-15T21:38:59.093Z,80.28
2023-04-15T21:41:25.852Z,81.12
2023-04-15T21:43:53.102Z,80.50
2023-04-15T21:46:22.778Z,80.91
2023-04-15T21:48:52.808Z,80.46
2023-04-15T21:51:19.268Z,80.96
2023-04-15T21:53:45.747Z,79.53
2023-04-15T21:56:12.372Z,78.37
2023-04-15T21:58:38.916Z,78.26
2023-04-15T22:01:05.557Z,77.83
2023-04-15T22:03:34.533Z,77.91
2023-04-15T22:06:04.350Z,76.92
2023-04-15T22:08:41.762Z,76.79
2023-04-15T22:11:20.935Z,76.13
2023-04-15T22:13:47.406Z,76.52
2023-04-15T22:16:13.892Z,76.64
2023-04-15T22:18:40.341Z,77.09
2023-04-15T22:21:06.829Z,76.78
2023-04-15T22:23:33.347Z,76.82
2023-04-15T22:25:59.840Z,76.15
2023-04-15T22:28:26.303Z,75.34
2023-04-15T22:30:52.772Z,75.63
2023-04-15T22:33:19.302Z,75.91
2023-04-15T22:35:45.757Z,75.74
2023-04-15T22:38:12.203Z,75.75
2023-04-15T22:40:38.712Z,75.24
2023-04-15T22:43:05.206Z,75.36
2023-04-15T22:45:31.677Z,75.65
2023-04-15T22:47:58.256Z,75.44
2023-04-15T22:50:24.761Z,75.07
2023-04-15T22:52:51.245Z,74.52
2023-04-15T22:55:17.725Z,75.25
2023-04-15T22:57:44.165Z,76.02
2023-04-15T23:00:10.919Z,76.18
2023-04-15T23:02:37.557Z,76.20
2023-04-15T23:05:12.420Z,75.71
2023-04-15T23:07:40.051Z,75.98
2023-04-15T23:10:07.201Z,76.85
2023-04-15T23:12:33.793Z,75.67
2023-04-15T23:15:00.292Z,75.09
2023-04-15T23:17:26.843Z,75.86
2023-04-15T23:19:53.349Z,76.16
2023-04-15T23:22:19.853Z,76.18
2023-04-15T23:24:46.380Z,75.75
2023-04-15T23:27:12.897Z,75.61
2023-04-15T23:29:39.420Z,76.23
2023-04-15T23:32:06.405Z,76.30
2023-04-15T23:34:32.882Z,76.48
2023-04-15T23:36:59.377Z,76.47
2023-04-15T23:39:25.900Z,76.69
2023-04-15T23:41:53.038Z,75.62
2023-04-15T23:44:20.241Z,76.54
2023-04-15T23:46:47.023Z,75.81
2023-04-15T23:49:13.584Z,75.49
2023-04-15T23:51:40.861Z,76.36
2023-04-15T23:54:07.387Z,77.63
2023-04-15T23:56:33.875Z,78.38
2023-04-15T23:59:00.334Z,78.39
